Time;durP1;ratioP1;P1;durP2;ratioP2;P2;SDS_P1;SDS_P2;PMS_P1;PMS_P2;Temp;Humidity;BMP_temperature;BMP_pressure;BME280_temperature;BME280_humidity;BME280_pressure;Samples;Min_cycle;Max_cycle;Signal;HPM_P1;HPM_P2
2022/08/22 00:01:20;;;;;;;;;;;19.00;60.60;;;;;;5091030;28;19912;-79
2022/08/22 00:04:04;;;;;;;;;;;19.00;60.50;;;;;;5092205;28;19918;-79
2022/08/22 00:06:34;;;;;;;;;;;19.10;60.50;;;;;;5090755;28;19908;-79
2022/08/22 00:09:09;;;;;;;;;;;19.00;60.40;;;;;;5091140;28;20014;-79
2022/08/22 00:11:53;;;;;;;;;;;19.00;60.30;;;;;;5090951;28;19952;-79
2022/08/22 00:14:27;;;;;;;;;;;19.10;60.30;;;;;;5092374;28;19914;-79
2022/08/22 00:17:03;;;;;;;;;;;19.10;60.20;;;;;;5090635;28;19915;-79
2022/08/22 00:19:42;;;;;;;;;;;19.10;60.20;;;;;;5090393;28;19912;-79
2022/08/22 00:22:16;;;;;;;;;;;19.10;60.00;;;;;;5091970;28;19912;-80
2022/08/22 00:25:00;;;;;;;;;;;19.10;60.00;;;;;;5091714;28;19915;-79
2022/08/22 00:27:32;;;;;;;;;;;19.20;60.00;;;;;;5091730;28;19961;-79
2022/08/22 00:30:07;;;;;;;;;;;19.10;60.00;;;;;;5090449;28;19921;-79
2022/08/22 00:32:47;;;;;;;;;;;19.10;60.10;;;;;;5090415;28;19915;-80
2022/08/22 00:35:34;;;;;;;;;;;19.00;60.20;;;;;;5090365;28;19930;-79
2022/08/22 00:38:01;;;;;;;;;;;18.90;60.30;;;;;;5090170;28;19919;-79
2022/08/22 00:40:42;;;;;;;;;;;18.70;60.40;;;;;;5091491;28;19919;-79
2022/08/22 00:43:26;;;;;;;;;;;18.70;60.60;;;;;;5090274;28;19916;-79
2022/08/22 00:46:04;;;;;;;;;;;18.70;60.70;;;;;;5091771;28;19919;-80
2022/08/22 00:48:39;;;;;;;;;;;18.70;60.50;;;;;;5091564;28;19908;-80
2022/08/22 00:51:30;;;;;;;;;;;18.60;60.30;;;;;;5091600;28;19908;-80
2022/08/22 00:54:06;;;;;;;;;;;18.40;60.30;;;;;;5091444;28;19920;-80
2022/08/22 00:56:39;;;;;;;;;;;18.20;60.60;;;;;;5091063;28;19912;-80
2022/08/22 00:59:23;;;;;;;;;;;18.00;60.70;;;;;;5091090;28;19918;-80
2022/08/22 01:01:55;;;;;;;;;;;18.00;60.80;;;;;;5090471;28;19919;-81
2022/08/22 01:04:27;;;;;;;;;;;18.00;60.90;;;;;;5089889;28;19931;-80
2022/08/22 01:07:15;;;;;;;;;;;18.10;61.20;;;;;;5091167;28;19949;-80
2022/08/22 01:09:59;;;;;;;;;;;18.10;60.60;;;;;;5091137;28;19908;-80
2022/08/22 01:12:24;;;;;;;;;;;18.20;60.60;;;;;;5089626;28;20295;-80
2022/08/22 01:14:50;;;;;;;;;;;18.20;60.70;;;;;;5090799;28;19995;-80
2022/08/22 01:17:15;;;;;;;;;;;18.20;60.70;;;;;;5089715;28;19912;-80
2022/08/22 01:19:42;;;;;;;;;;;18.20;60.70;;;;;;5089249;28;20023;-80
2022/08/22 01:22:16;;;;;;;;;;;18.20;60.70;;;;;;5089683;28;19908;-80
2022/08/22 01:28:00;;;;;;;;;;;18.40;60.50;;;;;;5090847;28;20416;-80
2022/08/22 01:30:26;;;;;;;;;;;18.50;60.50;;;;;;5089417;28;20292;-80
2022/08/22 01:33:00;;;;;;;;;;;18.50;60.50;;;;;;5090669;28;19908;-80
2022/08/22 01:35:44;;;;;;;;;;;18.50;60.40;;;;;;5089315;28;20267;-80
2022/08/22 01:38:18;;;;;;;;;;;18.50;60.40;;;;;;5089220;28;19923;-80
2022/08/22 01:40:47;;;;;;;;;;;18.50;61.00;;;;;;5090243;28;20309;-80
2022/08/22 01:43:27;;;;;;;;;;;18.60;60.60;;;;;;5091096;28;20269;-80
2022/08/22 01:46:15;;;;;;;;;;;18.60;60.50;;;;;;5090954;28;20318;-80
2022/08/22 01:48:54;;;;;;;;;;;18.60;60.50;;;;;;5078477;28;19908;-80
2022/08/22 01:51:23;;;;;;;;;;;18.70;60.50;;;;;;5089519;28;19994;-80
2022/08/22 01:54:09;;;;;;;;;;;18.60;60.60;;;;;;5090531;28;19912;-80
2022/08/22 01:56:43;;;;;;;;;;;18.60;60.70;;;;;;5089235;28;20352;-80
2022/08/22 01:59:16;;;;;;;;;;;18.70;60.60;;;;;;5089024;28;20287;-80
2022/08/22 02:01:51;;;;;;;;;;;18.70;60.60;;;;;;5089048;28;19908;-80
2022/08/22 02:04:22;;;;;;;;;;;18.70;60.60;;;;;;5090112;28;19908;-80
2022/08/22 02:06:48;;;;;;;;;;;18.80;60.60;;;;;;5090174;28;19919;-81
2022/08/22 02:09:29;;;;;;;;;;;18.80;60.60;;;;;;5090174;28;20288;-80
2022/08/22 02:11:59;;;;;;;;;;;18.80;60.60;;;;;;5087969;28;20130;-80
2022/08/22 02:14:31;;;;;;;;;;;18.90;60.70;;;;;;5088575;28;20010;-80
2022/08/22 02:17:06;;;;;;;;;;;18.90;60.60;;;;;;5088532;28;20006;-80
2022/08/22 02:19:52;;;;;;;;;;;18.90;60.70;;;;;;5088682;28;19938;-80
2022/08/22 02:22:21;;;;;;;;;;;18.80;60.70;;;;;;5089363;28;20402;-80
2022/08/22 02:24:50;;;;;;;;;;;18.80;60.70;;;;;;5088726;28;19908;-80
2022/08/22 02:27:22;;;;;;;;;;;18.80;60.90;;;;;;5089838;28;20428;-80
2022/08/22 02:30:17;;;;;;;;;;;18.80;60.90;;;;;;5090148;28;19914;-80
2022/08/22 02:33:01;;;;;;;;;;;18.90;61.00;;;;;;5018061;28;19932;-80
2022/08/22 02:35:45;;;;;;;;;;;18.90;60.80;;;;;;5089796;28;20356;-80
2022/08/22 02:38:30;;;;;;;;;;;19.00;60.70;;;;;;5089468;28;20001;-80
2022/08/22 02:41:08;;;;;;;;;;;19.00;60.70;;;;;;5088179;28;19924;-80
2022/08/22 02:43:33;;;;;;;;;;;19.10;60.70;;;;;;5088031;28;19908;-80
2022/08/22 02:46:14;;;;;;;;;;;19.10;60.60;;;;;;5089680;28;19908;-80
2022/08/22 02:48:56;;;;;;;;;;;19.20;60.60;;;;;;5088557;28;20387;-80
2022/08/22 02:51:32;;;;;;;;;;;19.10;60.70;;;;;;5089734;28;19912;-80
2022/08/22 02:54:13;;;;;;;;;;;19.10;60.80;;;;;;5089905;28;20280;-80
2022/08/22 02:56:49;;;;;;;;;;;19.10;60.90;;;;;;5089429;28;19908;-80
2022/08/22 02:59:20;;;;;;;;;;;19.00;60.90;;;;;;5087898;28;19923;-80
2022/08/22 03:01:46;;;;;;;;;;;19.10;60.90;;;;;;5088000;28;19954;-80
2022/08/22 03:04:15;;;;;;;;;;;19.00;60.90;;;;;;5087779;28;19916;-80
2022/08/22 03:06:58;;;;;;;;;;;19.00;61.00;;;;;;5089452;28;19953;-80
2022/08/22 03:09:32;;;;;;;;;;;19.10;61.10;;;;;;5088126;28;19908;-80
2022/08/22 03:12:05;;;;;;;;;;;19.00;61.00;;;;;;5089131;28;20316;-80
2022/08/22 03:14:39;;;;;;;;;;;19.00;61.10;;;;;;5087784;28;20288;-80
2022/08/22 03:17:08;;;;;;;;;;;19.00;61.20;;;;;;5089007;28;19909;-80
2022/08/22 03:19:53;;;;;;;;;;;19.00;61.20;;;;;;5088966;28;19920;-80
2022/08/22 03:22:32;;;;;;;;;;;18.90;61.20;;;;;;5087705;28;19958;-80
2022/08/22 03:25:06;;;;;;;;;;;18.90;61.20;;;;;;5087299;28;19915;-80
2022/08/22 03:27:38;;;;;;;;;;;18.90;61.30;;;;;;5088919;28;19908;-80
2022/08/22 03:30:04;;;;;;;;;;;19.00;61.30;;;;;;5088844;28;19981;-80
2022/08/22 03:32:57;;;;;;;;;;;19.00;61.20;;;;;;5087528;28;20356;-80
2022/08/22 03:35:23;;;;;;;;;;;19.00;61.10;;;;;;5084217;28;19958;-80
2022/08/22 03:37:51;;;;;;;;;;;19.10;61.10;;;;;;5088755;28;20338;-81
2022/08/22 03:40:35;;;;;;;;;;;19.10;61.20;;;;;;5087433;28;19916;-80
2022/08/22 03:43:20;;;;;;;;;;;19.00;61.20;;;;;;5087237;28;19920;-80
2022/08/22 03:45:57;;;;;;;;;;;19.00;61.20;;;;;;5087385;28;19913;-80
2022/08/22 03:48:42;;;;;;;;;;;19.10;61.30;;;;;;5087478;28;19915;-80
2022/08/22 03:51:16;;;;;;;;;;;19.10;61.30;;;;;;5087308;28;19930;-80
2022/08/22 03:53:45;;;;;;;;;;;19.10;61.30;;;;;;5087454;28;20337;-80
2022/08/22 03:56:13;;;;;;;;;;;19.10;61.30;;;;;;5088781;28;20002;-80
2022/08/22 03:58:58;;;;;;;;;;;19.10;61.30;;;;;;5088910;28;20017;-80
2022/08/22 04:01:42;;;;;;;;;;;19.10;61.20;;;;;;5088422;28;19923;-79
2022/08/22 04:04:10;;;;;;;;;;;19.20;61.20;;;;;;5088555;28;19909;-80
2022/08/22 04:06:48;;;;;;;;;;;19.20;61.20;;;;;;5087058;28;19919;-80
2022/08/22 04:09:26;;;;;;;;;;;19.20;61.20;;;;;;5087179;28;19908;-80
2022/08/22 04:12:10;;;;;;;;;;;19.10;61.20;;;;;;5088407;28;19935;-80
2022/08/22 04:14:47;;;;;;;;;;;19.10;61.30;;;;;;5088384;28;19966;-80
2022/08/22 04:17:13;;;;;;;;;;;19.10;61.40;;;;;;5087008;28;20357;-80
2022/08/22 04:19:41;;;;;;;;;;;19.10;61.40;;;;;;5088042;28;19919;-80
2022/08/22 04:22:07;;;;;;;;;;;19.20;61.40;;;;;;5086921;28;19962;-80
2022/08/22 04:24:42;;;;;;;;;;;19.20;61.40;;;;;;5086902;28;19939;-80
2022/08/22 04:27:07;;;;;;;;;;;19.20;61.30;;;;;;5086710;28;19909;-80
2022/08/22 04:29:36;;;;;;;;;;;19.10;61.30;;;;;;5086830;28;19908;-80
2022/08/22 04:32:07;;;;;;;;;;;19.10;61.30;;;;;;5087161;28;20418;-80
2022/08/22 04:34:36;;;;;;;;;;;19.10;61.40;;;;;;5086587;28;20045;-80
2022/08/22 04:37:40;;;;;;;;;;;19.10;61.40;;;;;;5091822;28;19943;-80
2022/08/22 04:40:24;;;;;;;;;;;19.10;61.50;;;;;;5029104;28;19917;-80
2022/08/22 04:42:53;;;;;;;;;;;19.10;61.40;;;;;;5029142;28;20428;-80
2022/08/22 04:45:23;;;;;;;;;;;19.10;61.40;;;;;;5067138;28;20404;-80
2022/08/22 04:47:52;;;;;;;;;;;19.10;61.50;;;;;;5091709;28;20442;-80
2022/08/22 04:50:29;;;;;;;;;;;19.20;61.40;;;;;;5091670;28;19930;-80
2022/08/22 04:53:02;;;;;;;;;;;19.30;61.40;;;;;;5090316;28;19916;-80
2022/08/22 04:55:27;;;;;;;;;;;19.30;61.30;;;;;;5091811;28;19908;-80
2022/08/22 04:58:01;;;;;;;;;;;19.30;61.20;;;;;;5092093;28;19915;-79
2022/08/22 05:00:34;;;;;;;;;;;19.40;61.20;;;;;;5090285;28;19912;-80
2022/08/22 05:03:01;;;;;;;;;;;19.40;61.20;;;;;;5091521;28;19987;-80
2022/08/22 05:05:35;;;;;;;;;;;19.40;61.20;;;;;;5091399;28;20400;-80
2022/08/22 05:08:01;;;;;;;;;;;19.40;61.10;;;;;;5091063;28;19938;-80
2022/08/22 05:10:32;;;;;;;;;;;19.30;61.10;;;;;;5089786;28;20330;-80
2022/08/22 05:13:01;;;;;;;;;;;19.30;61.20;;;;;;5089882;28;19908;-80
2022/08/22 05:15:33;;;;;;;;;;;19.30;61.20;;;;;;5089696;28;19914;-79
2022/08/22 05:18:02;;;;;;;;;;;19.20;61.20;;;;;;5089832;28;19919;-80
2022/08/22 05:20:29;;;;;;;;;;;19.20;61.20;;;;;;5091017;28;20019;-80
2022/08/22 05:22:57;;;;;;;;;;;19.20;61.70;;;;;;5091142;28;19916;-80
2022/08/22 05:25:31;;;;;;;;;;;19.10;61.30;;;;;;5090886;28;19909;-80
2022/08/22 05:28:10;;;;;;;;;;;19.10;61.30;;;;;;5089759;28;19959;-80
2022/08/22 05:30:37;;;;;;;;;;;19.10;61.40;;;;;;5089793;28;19957;-80
2022/08/22 05:33:11;;;;;;;;;;;19.10;61.50;;;;;;5090990;28;19908;-80
2022/08/22 05:35:39;;;;;;;;;;;19.10;61.50;;;;;;5090989;28;19965;-80
2022/08/22 05:38:08;;;;;;;;;;;19.10;61.50;;;;;;5089514;28;19919;-80
2022/08/22 05:40:34;;;;;;;;;;;19.10;61.50;;;;;;5088979;28;19995;-80
2022/08/22 05:43:00;;;;;;;;;;;19.10;61.40;;;;;;5072716;28;19916;-80
2022/08/22 05:45:27;;;;;;;;;;;19.10;61.40;;;;;;5090616;28;19908;-80
2022/08/22 05:48:03;;;;;;;;;;;19.10;61.30;;;;;;5087857;28;19962;-80
2022/08/22 05:50:33;;;;;;;;;;;19.20;61.40;;;;;;5090722;28;19908;-80
2022/08/22 05:53:05;;;;;;;;;;;19.20;61.30;;;;;;5089241;28;19908;-80
2022/08/22 05:55:36;;;;;;;;;;;19.20;61.30;;;;;;5089278;28;19909;-80
2022/08/22 05:58:09;;;;;;;;;;;19.20;61.20;;;;;;5090407;28;19908;-80
2022/08/22 06:00:38;;;;;;;;;;;19.20;61.20;;;;;;5089053;28;20276;-79
2022/08/22 06:03:12;;;;;;;;;;;19.20;61.20;;;;;;5090317;28;19908;-78
2022/08/22 06:05:39;;;;;;;;;;;19.20;61.20;;;;;;5089570;28;19954;-79
2022/08/22 06:08:18;;;;;;;;;;;19.30;61.30;;;;;;5089414;28;19912;-79
2022/08/22 06:10:45;;;;;;;;;;;19.30;61.30;;;;;;5089775;28;19909;-79
2022/08/22 06:13:24;;;;;;;;;;;19.30;61.30;;;;;;5089109;28;19908;-78
2022/08/22 06:15:56;;;;;;;;;;;19.40;61.30;;;;;;5089204;28;19908;-79
2022/08/22 06:18:25;;;;;;;;;;;19.40;61.30;;;;;;5087449;28;19908;-79
2022/08/22 06:21:01;;;;;;;;;;;19.50;61.30;;;;;;5087428;28;19985;-79
2022/08/22 06:23:39;;;;;;;;;;;19.50;61.30;;;;;;5088766;28;19919;-79
2022/08/22 06:26:05;;;;;;;;;;;19.50;61.20;;;;;;5087176;28;19931;-79
2022/08/22 06:28:34;;;;;;;;;;;19.50;61.20;;;;;;5088757;28;19920;-79
2022/08/22 06:31:01;;;;;;;;;;;19.50;61.20;;;;;;5087360;28;19916;-79
2022/08/22 06:33:28;;;;;;;;;;;19.40;61.20;;;;;;5087113;28;19919;-79
2022/08/22 06:39:06;;;;;;;;;;;19.40;61.30;;;;;;5088732;28;19915;-78
2022/08/22 06:41:32;;;;;;;;;;;19.40;61.30;;;;;;5087151;28;19920;-79
2022/08/22 06:43:59;;;;;;;;;;;19.30;61.30;;;;;;5088409;28;19909;-79
2022/08/22 06:46:26;;;;;;;;;;;19.30;61.40;;;;;;5088568;28;20395;-79
2022/08/22 06:48:53;;;;;;;;;;;19.40;61.50;;;;;;5088459;28;19914;-79
2022/08/22 06:51:19;;;;;;;;;;;19.40;61.50;;;;;;5087263;28;19907;-78
2022/08/22 06:53:46;;;;;;;;;;;19.40;61.50;;;;;;5087385;28;19938;-79
2022/08/22 06:56:16;;;;;;;;;;;19.40;61.40;;;;;;5088714;28;19908;-78
2022/08/22 06:58:46;;;;;;;;;;;19.40;61.50;;;;;;5088357;28;19915;-79
2022/08/22 07:01:22;;;;;;;;;;;19.40;61.50;;;;;;5087139;28;20368;-78
2022/08/22 07:03:58;;;;;;;;;;;19.60;61.60;;;;;;5086950;28;19952;-79
2022/08/22 07:06:33;;;;;;;;;;;19.70;61.60;;;;;;5088303;28;19912;-79
2022/08/22 07:08:59;;;;;;;;;;;19.80;61.50;;;;;;5087922;28;20280;-79
2022/08/22 07:11:27;;;;;;;;;;;19.90;61.50;;;;;;5086724;28;19920;-79
2022/08/22 07:14:01;;;;;;;;;;;20.00;61.40;;;;;;5086913;28;20310;-79
2022/08/22 07:16:28;;;;;;;;;;;20.10;61.30;;;;;;5087954;28;19961;-79
2022/08/22 07:18:54;;;;;;;;;;;20.10;61.20;;;;;;5086541;28;19908;-79
2022/08/22 07:21:24;;;;;;;;;;;20.10;61.20;;;;;;5087949;28;19909;-79
2022/08/22 07:23:50;;;;;;;;;;;20.10;61.30;;;;;;5087997;28;20249;-78
2022/08/22 07:26:16;;;;;;;;;;;20.10;61.30;;;;;;5086632;28;19912;-79
2022/08/22 07:28:45;;;;;;;;;;;20.00;61.20;;;;;;5086780;28;20375;-78
2022/08/22 07:31:10;;;;;;;;;;;20.00;61.30;;;;;;5086522;28;19908;-79
2022/08/22 07:33:38;;;;;;;;;;;20.00;61.40;;;;;;5086766;28;19912;-79
2022/08/22 07:36:16;;;;;;;;;;;20.10;61.50;;;;;;5086218;28;20436;-79
2022/08/22 07:38:46;;;;;;;;;;;20.20;61.40;;;;;;5086347;28;19908;-78
2022/08/22 07:41:15;;;;;;;;;;;20.20;61.30;;;;;;5087590;28;19926;-79
2022/08/22 07:43:45;;;;;;;;;;;20.20;61.30;;;;;;5086417;28;20367;-79
2022/08/22 07:46:30;;;;;;;;;;;20.20;61.30;;;;;;5086235;28;20276;-79
2022/08/22 07:49:02;;;;;;;;;;;20.10;61.30;;;;;;5087479;28;19912;-78
2022/08/22 07:51:49;;;;;;;;;;;20.00;61.40;;;;;;5086483;28;19929;-80
2022/08/22 07:54:22;;;;;;;;;;;19.90;61.30;;;;;;5087346;28;19912;-79
2022/08/22 07:56:52;;;;;;;;;;;19.80;61.30;;;;;;5087563;28;19908;-79
2022/08/22 07:59:18;;;;;;;;;;;19.80;61.20;;;;;;5085809;28;20014;-79
2022/08/22 08:01:45;;;;;;;;;;;19.60;61.20;;;;;;5086287;28;20391;-78
2022/08/22 08:04:13;;;;;;;;;;;19.50;61.40;;;;;;5085978;28;20428;-79
2022/08/22 08:06:39;;;;;;;;;;;19.50;61.40;;;;;;5087263;28;19908;-78
2022/08/22 08:09:07;;;;;;;;;;;19.40;61.50;;;;;;5087101;28;19985;-78
2022/08/22 08:11:38;;;;;;;;;;;19.30;61.50;;;;;;5088764;28;19916;-78
2022/08/22 08:14:05;;;;;;;;;;;19.40;61.50;;;;;;5089669;28;19912;-78
2022/08/22 08:16:33;;;;;;;;;;;19.40;61.60;;;;;;5089871;28;19913;-78
2022/08/22 08:19:00;;;;;;;;;;;19.50;61.70;;;;;;5091096;28;19944;-78
2022/08/22 08:21:32;;;;;;;;;;;19.60;61.50;;;;;;5091199;28;20372;-78
2022/08/22 08:23:59;;;;;;;;;;;19.60;61.50;;;;;;5090997;28;19953;-78
2022/08/22 08:29:35;;;;;;;;;;;19.70;61.60;;;;;;5090975;28;19918;-78
2022/08/22 08:32:03;;;;;;;;;;;20.00;61.80;;;;;;5089739;28;19909;-78
2022/08/22 08:34:31;;;;;;;;;;;20.20;61.70;;;;;;5089029;28;20260;-78
2022/08/22 08:37:00;;;;;;;;;;;20.60;61.60;;;;;;5090433;28;19912;-78
2022/08/22 08:39:37;;;;;;;;;;;21.10;61.70;;;;;;5090606;28;20341;-77
2022/08/22 08:42:06;;;;;;;;;;;21.70;61.50;;;;;;5091129;28;19927;-72
2022/08/22 08:45:00;;;;;;;;;;;22.30;61.10;;;;;;5091900;28;19950;-79
2022/08/22 08:47:28;;;;;;;;;;;22.60;60.80;;;;;;5088410;28;19912;-81
2022/08/22 08:50:09;;;;;;;;;;;22.70;60.30;;;;;;5092069;28;19908;-79
2022/08/22 08:52:54;;;;;;;;;;;22.50;60.30;;;;;;5090621;28;19991;-77
2022/08/22 08:55:20;;;;;;;;;;;22.40;60.50;;;;;;5082701;28;19913;-78
2022/08/22 08:57:58;;;;;;;;;;;22.20;60.60;;;;;;5091926;28;20016;-77
2022/08/22 09:00:42;;;;;;;;;;;21.90;60.70;;;;;;5090300;28;19999;-79
2022/08/22 09:03:12;;;;;;;;;;;21.60;60.80;;;;;;5079869;28;19980;-79
2022/08/22 09:05:38;;;;;;;;;;;21.40;61.10;;;;;;5091291;28;19908;-79
2022/08/22 09:08:10;;;;;;;;;;;21.30;61.30;;;;;;5092269;28;19916;-79
2022/08/22 09:10:54;;;;;;;;;;;21.20;61.30;;;;;;5092091;28;19916;-79
2022/08/22 09:13:19;;;;;;;;;;;21.20;61.50;;;;;;5091239;28;19947;-79
2022/08/22 09:16:04;;;;;;;;;;;21.10;61.40;;;;;;5090557;28;19951;-78
2022/08/22 09:18:39;;;;;;;;;;;21.00;61.40;;;;;;5092298;28;19984;-79
2022/08/22 09:21:11;;;;;;;;;;;20.90;61.40;;;;;;5091056;28;19922;-78
2022/08/22 09:23:40;;;;;;;;;;;20.90;61.60;;;;;;5089918;28;19912;-78
2022/08/22 09:26:11;;;;;;;;;;;20.80;61.60;;;;;;5090175;28;19912;-80
2022/08/22 09:28:47;;;;;;;;;;;20.80;61.70;;;;;;5091686;28;20240;-79
2022/08/22 09:31:28;;;;;;;;;;;20.80;61.60;;;;;;5090521;28;19977;-78
2022/08/22 09:34:02;;;;;;;;;;;20.70;61.70;;;;;;5090377;28;20271;-77
2022/08/22 09:36:41;;;;;;;;;;;20.70;61.60;;;;;;5090726;28;20399;-78
2022/08/22 09:39:15;;;;;;;;;;;20.70;61.70;;;;;;5090493;28;19916;-78
2022/08/22 09:41:49;;;;;;;;;;;20.60;61.70;;;;;;5090689;28;20019;-79
2022/08/22 09:44:15;;;;;;;;;;;20.60;61.70;;;;;;5091091;28;20276;-78
2022/08/22 09:47:19;;;;;;;;;;;20.60;61.80;;;;;;5089688;28;19908;-78
2022/08/22 09:49:50;;;;;;;;;;;20.70;61.70;;;;;;5028412;28;19952;-78
2022/08/22 09:52:45;;;;;;;;;;;20.70;61.70;;;;;;5024344;28;19957;-78
2022/08/22 09:55:10;;;;;;;;;;;20.70;61.70;;;;;;5021928;28;19909;-77
2022/08/22 09:57:46;;;;;;;;;;;20.80;61.80;;;;;;5090100;28;20340;-80
2022/08/22 10:00:15;;;;;;;;;;;20.90;61.80;;;;;;5089058;28;20326;-76
2022/08/22 10:02:43;;;;;;;;;;;21.00;61.80;;;;;;5090208;28;19950;-78
2022/08/22 10:05:21;;;;;;;;;;;21.20;61.80;;;;;;5091253;28;19908;-80
2022/08/22 10:08:01;;;;;;;;;;;21.30;61.60;;;;;;5091317;28;19908;-80
2022/08/22 10:10:39;;;;;;;;;;;21.30;61.50;;;;;;5091185;28;19908;-78
2022/08/22 10:13:04;;;;;;;;;;;21.30;61.50;;;;;;5091500;28;19922;-80
2022/08/22 10:15:39;;;;;;;;;;;21.30;61.50;;;;;;5090286;28;20360;-81
2022/08/22 10:18:08;;;;;;;;;;;21.30;61.50;;;;;;5089749;28;20484;-78
2022/08/22 10:20:48;;;;;;;;;;;21.40;61.60;;;;;;5090830;28;19916;-78
2022/08/22 10:23:20;;;;;;;;;;;21.40;61.50;;;;;;5091639;28;19912;-76
2022/08/22 10:25:48;;;;;;;;;;;21.30;61.40;;;;;;5091648;28;19912;-77
2022/08/22 10:28:34;;;;;;;;;;;21.20;61.50;;;;;;5089578;28;19976;-75
2022/08/22 10:31:18;;;;;;;;;;;21.20;61.60;;;;;;5091052;28;20397;-78
2022/08/22 10:33:49;;;;;;;;;;;21.20;61.80;;;;;;5087852;28;19912;-80
2022/08/22 10:36:19;;;;;;;;;;;21.30;62.10;;;;;;5089232;28;19912;-77
2022/08/22 10:38:47;;;;;;;;;;;21.70;62.00;;;;;;5090780;28;19932;-78
2022/08/22 10:41:12;;;;;;;;;;;21.90;61.90;;;;;;5090528;28;20288;-79
2022/08/22 10:43:38;;;;;;;;;;;22.50;62.40;;;;;;5090720;28;19908;-78
2022/08/22 10:46:11;;;;;;;;;;;23.40;62.50;;;;;;5091020;28;19909;-77
2022/08/22 10:48:37;;;;;;;;;;;24.00;62.10;;;;;;5089269;28;19908;-78
2022/08/22 10:51:07;;;;;;;;;;;24.90;62.00;;;;;;5088744;28;20310;-77
2022/08/22 10:53:35;;;;;;;;;;;25.30;61.40;;;;;;5089847;28;20241;-76
2022/08/22 10:56:09;;;;;;;;;;;25.50;61.10;;;;;;5088906;28;19908;-79
2022/08/22 10:58:59;;;;;;;;;;;25.80;61.20;;;;;;5089003;28;19920;-79
2022/08/22 11:01:27;;;;;;;;;;;26.30;61.60;;;;;;5089581;28;19921;-78
2022/08/22 11:03:56;;;;;;;;;;;26.60;61.10;;;;;;5090880;28;19908;-77
2022/08/22 11:06:26;;;;;;;;;;;26.50;60.80;;;;;;5089096;28;19913;-78
2022/08/22 11:09:10;;;;;;;;;;;26.20;60.80;;;;;;5088111;28;20000;-77
2022/08/22 11:11:54;;;;;;;;;;;26.10;61.10;;;;;;5090542;28;19914;-77
2022/08/22 11:14:23;;;;;;;;;;;26.10;61.40;;;;;;5089404;28;19912;-76
2022/08/22 11:17:13;;;;;;;;;;;26.30;61.60;;;;;;5089444;28;19934;-77
2022/08/22 11:19:58;;;;;;;;;;;26.60;61.80;;;;;;5089446;28;19965;-75
2022/08/22 11:22:32;;;;;;;;;;;26.80;61.60;;;;;;5089492;28;20424;-77
2022/08/22 11:25:04;;;;;;;;;;;26.60;61.20;;;;;;5089042;28;19934;-77
2022/08/22 11:27:38;;;;;;;;;;;26.10;61.00;;;;;;5090406;28;19985;-76
2022/08/22 11:30:16;;;;;;;;;;;25.70;61.20;;;;;;5088079;28;19908;-77
2022/08/22 11:32:44;;;;;;;;;;;25.30;61.40;;;;;;5088126;28;19916;-79
2022/08/22 11:35:20;;;;;;;;;;;25.20;61.80;;;;;;5089378;28;19908;-77
2022/08/22 11:37:51;;;;;;;;;;;25.50;62.90;;;;;;5090011;28;19915;-78
2022/08/22 11:40:18;;;;;;;;;;;27.10;64.00;;;;;;5089054;28;20417;-75
2022/08/22 11:42:50;;;;;;;;;;;28.20;62.80;;;;;;5088780;28;19926;-76
2022/08/22 11:45:18;;;;;;;;;;;28.40;62.00;;;;;;5089893;28;19914;-78
2022/08/22 11:47:46;;;;;;;;;;;28.60;62.10;;;;;;5092130;28;19923;-74
2022/08/22 11:50:29;;;;;;;;;;;28.70;61.70;;;;;;5093274;28;20325;-77
2022/08/22 11:53:07;;;;;;;;;;;28.90;62.10;;;;;;5092729;28;19923;-76
2022/08/22 11:55:48;;;;;;;;;;;29.30;62.20;;;;;;5093406;28;19953;-75
2022/08/22 11:58:25;;;;;;;;;;;29.90;62.70;;;;;;5093367;28;19912;-78
2022/08/22 12:01:02;;;;;;;;;;;30.20;61.80;;;;;;5092211;28;19916;-80
2022/08/22 12:03:47;;;;;;;;;;;29.60;61.30;;;;;;5092282;28;20314;-79
2022/08/22 12:06:31;;;;;;;;;;;28.90;61.20;;;;;;5093097;28;19919;-75
2022/08/22 12:09:09;;;;;;;;;;;28.20;61.40;;;;;;5092954;28;19966;-78
2022/08/22 12:11:34;;;;;;;;;;;27.80;62.20;;;;;;5090923;28;19912;-77
2022/08/22 12:14:05;;;;;;;;;;;27.70;62.50;;;;;;5092749;28;19942;-76
2022/08/22 12:16:38;;;;;;;;;;;27.80;62.70;;;;;;5091101;28;20320;-75
2022/08/22 12:19:23;;;;;;;;;;;28.00;63.00;;;;;;5092466;28;19909;-76
2022/08/22 12:22:07;;;;;;;;;;;28.40;63.10;;;;;;5090638;28;19981;-76
2022/08/22 12:24:39;;;;;;;;;;;29.30;63.70;;;;;;5089825;28;20322;-76
2022/08/22 12:27:23;;;;;;;;;;;30.40;63.70;;;;;;5090099;28;19916;-76
2022/08/22 12:29:51;;;;;;;;;;;31.30;63.60;;;;;;5091115;28;19919;-74
2022/08/22 12:32:36;;;;;;;;;;;32.10;63.80;;;;;;5089188;28;20293;-75
2022/08/22 12:35:22;;;;;;;;;;;32.10;62.60;;;;;;5088428;28;19919;-73
2022/08/22 12:37:50;;;;;;;;;;;31.80;61.90;;;;;;5091571;28;19995;-75
2022/08/22 12:40:25;;;;;;;;;;;31.00;61.60;;;;;;5091828;28;19912;-78
2022/08/22 12:43:09;;;;;;;;;;;30.30;61.80;;;;;;5083664;28;20280;-77
2022/08/22 12:45:54;;;;;;;;;;;29.90;62.20;;;;;;5091033;28;19912;-77
2022/08/22 12:48:35;;;;;;;;;;;29.50;62.20;;;;;;5081330;28;19931;-74
2022/08/22 12:51:13;;;;;;;;;;;29.10;62.20;;;;;;5091042;28;20112;-76
2022/08/22 12:53:51;;;;;;;;;;;29.20;63.20;;;;;;5091257;28;19913;-76
2022/08/22 12:56:43;;;;;;;;;;;29.40;62.70;;;;;;5090620;28;19965;-76
2022/08/22 12:59:28;;;;;;;;;;;29.70;62.90;;;;;;5090064;28;19946;-75
2022/08/22 13:01:55;;;;;;;;;;;29.50;62.00;;;;;;5090409;28;19943;-77
2022/08/22 13:04:23;;;;;;;;;;;29.00;61.90;;;;;;5092076;28;20403;-75
2022/08/22 13:07:01;;;;;;;;;;;28.90;62.70;;;;;;5092799;28;19912;-76
2022/08/22 13:09:26;;;;;;;;;;;29.50;63.50;;;;;;5091705;28;19908;-76
2022/08/22 13:11:54;;;;;;;;;;;30.20;63.40;;;;;;5090171;28;20696;-75
2022/08/22 13:14:26;;;;;;;;;;;30.70;63.30;;;;;;5091124;28;19908;-77
2022/08/22 13:16:54;;;;;;;;;;;31.00;63.00;;;;;;5091147;28;20004;-75
2022/08/22 13:19:24;;;;;;;;;;;31.00;62.50;;;;;;5090777;28;19965;-75
2022/08/22 13:22:10;;;;;;;;;;;30.80;62.40;;;;;;5090416;28;19919;-74
2022/08/22 13:24:39;;;;;;;;;;;30.40;61.80;;;;;;5088365;28;19950;-74
2022/08/22 13:27:13;;;;;;;;;;;29.60;61.90;;;;;;5091024;28;19908;-75
2022/08/22 13:29:44;;;;;;;;;;;29.30;62.50;;;;;;5090108;28;19915;-76
2022/08/22 13:32:17;;;;;;;;;;;29.30;63.00;;;;;;5089629;28;19951;-76
2022/08/22 13:34:44;;;;;;;;;;;29.40;63.10;;;;;;5089509;28;19915;-79
2022/08/22 13:37:13;;;;;;;;;;;29.30;63.30;;;;;;5089951;28;19908;-77
2022/08/22 13:39:40;;;;;;;;;;;29.00;62.60;;;;;;5089502;28;19911;-77
2022/08/22 13:42:06;;;;;;;;;;;28.50;62.40;;;;;;5091042;28;19920;-77
2022/08/22 13:44:40;;;;;;;;;;;28.00;62.30;;;;;;5090984;28;20387;-77
2022/08/22 13:47:08;;;;;;;;;;;27.60;62.50;;;;;;5090359;28;19941;-77
2022/08/22 13:49:35;;;;;;;;;;;27.40;62.60;;;;;;5089338;28;19912;-78
2022/08/22 13:52:10;;;;;;;;;;;27.30;62.80;;;;;;5091094;28;19909;-78
2022/08/22 13:54:35;;;;;;;;;;;27.30;62.80;;;;;;5091004;28;19923;-78
2022/08/22 13:57:06;;;;;;;;;;;27.30;62.50;;;;;;5089554;28;19908;-78
2022/08/22 13:59:44;;;;;;;;;;;27.20;62.30;;;;;;5090803;28;19912;-78
2022/08/22 14:02:32;;;;;;;;;;;27.00;62.10;;;;;;5090808;28;20268;-78
2022/08/22 14:05:00;;;;;;;;;;;26.80;62.10;;;;;;5090400;28;19911;-77
2022/08/22 14:07:28;;;;;;;;;;;26.70;62.10;;;;;;5090823;28;20381;-77
2022/08/22 14:09:56;;;;;;;;;;;26.50;62.20;;;;;;5089725;28;19977;-76
2022/08/22 14:12:23;;;;;;;;;;;26.40;62.20;;;;;;5089299;28;19977;-78
2022/08/22 14:14:56;;;;;;;;;;;26.30;62.30;;;;;;5090861;28;19909;-80
2022/08/22 14:17:23;;;;;;;;;;;26.30;62.50;;;;;;5091266;28;20423;-82
2022/08/22 14:20:02;;;;;;;;;;;26.40;62.50;;;;;;5090674;28;19916;-77
2022/08/22 14:22:30;;;;;;;;;;;26.60;62.40;;;;;;5091085;28;20287;-78
2022/08/22 14:24:57;;;;;;;;;;;26.70;62.30;;;;;;5090622;28;19912;-77
2022/08/22 14:27:32;;;;;;;;;;;26.90;62.30;;;;;;5089023;28;20276;-77
2022/08/22 14:30:00;;;;;;;;;;;27.00;62.10;;;;;;5089201;28;19940;-79
2022/08/22 14:32:25;;;;;;;;;;;27.00;61.90;;;;;;5090366;28;19916;-77
2022/08/22 14:35:01;;;;;;;;;;;26.90;61.70;;;;;;5088595;28;19908;-77
2022/08/22 14:37:29;;;;;;;;;;;26.90;61.80;;;;;;5088335;28;19931;-76
2022/08/22 14:40:17;;;;;;;;;;;26.90;61.80;;;;;;5089523;28;19919;-78
2022/08/22 14:42:46;;;;;;;;;;;27.00;61.80;;;;;;5087903;28;19971;-77
2022/08/22 14:45:16;;;;;;;;;;;27.10;61.70;;;;;;5089542;28;19915;-76
2022/08/22 14:47:45;;;;;;;;;;;27.10;61.60;;;;;;5090192;28;19912;-79
2022/08/22 14:50:31;;;;;;;;;;;27.10;61.50;;;;;;5088778;28;19971;-76
2022/08/22 14:53:05;;;;;;;;;;;27.10;61.50;;;;;;5089688;28;19908;-79
2022/08/22 14:55:31;;;;;;;;;;;27.10;61.50;;;;;;5090235;28;20283;-78
2022/08/22 14:57:59;;;;;;;;;;;27.00;61.40;;;;;;5090118;28;19909;-78
2022/08/22 15:00:30;;;;;;;;;;;26.80;61.40;;;;;;5089391;28;19912;-77
2022/08/22 15:03:05;;;;;;;;;;;26.70;61.60;;;;;;5089388;28;19978;-77